sensor_id;sensor_type;location;lat;lon;timestamp;P1;durP1;ratioP1;P2;durP2;ratioP2
10283;SDS011;5187;52.378;9.018;2022-12-18T00:02:10;0.30;;;0.30;;
10283;SDS011;5187;52.378;9.018;2022-12-18T00:04:39;0.40;;;0.40;;
10283;SDS011;5187;52.378;9.018;2022-12-18T00:07:07;0.30;;;0.30;;
10283;SDS011;5187;52.378;9.018;2022-12-18T00:09:36;0.30;;;0.30;;
10283;SDS011;5187;52.378;9.018;2022-12-18T00:12:06;0.40;;;0.40;;
10283;SDS011;5187;52.378;9.018;2022-12-18T00:14:41;0.30;;;0.30;;
10283;SDS011;5187;52.378;9.018;2022-12-18T00:17:10;0.40;;;0.40;;
10283;SDS011;5187;52.378;9.018;2022-12-18T00:19:39;0.40;;;0.40;;
10283;SDS011;5187;52.378;9.018;2022-12-18T00:22:07;0.40;;;0.40;;
10283;SDS011;5187;52.378;9.018;2022-12-18T00:24:36;0.30;;;0.30;;
10283;SDS011;5187;52.378;9.018;2022-12-18T00:27:04;0.30;;;0.30;;
10283;SDS011;5187;52.378;9.018;2022-12-18T00:29:33;0.40;;;0.40;;
10283;SDS011;5187;52.378;9.018;2022-12-18T00:32:01;0.30;;;0.30;;
10283;SDS011;5187;52.378;9.018;2022-12-18T00:34:31;0.40;;;0.40;;
10283;SDS011;5187;52.378;9.018;2022-12-18T00:37:00;0.40;;;0.40;;
10283;SDS011;5187;52.378;9.018;2022-12-18T00:39:28;0.40;;;0.40;;
10283;SDS011;5187;52.378;9.018;2022-12-18T00:41:57;0.30;;;0.30;;
10283;SDS011;5187;52.378;9.018;2022-12-18T00:44:43;0.30;;;0.30;;
10283;SDS011;5187;52.378;9.018;2022-12-18T00:47:11;0.37;;;0.37;;
10283;SDS011;5187;52.378;9.018;2022-12-18T00:49:41;0.30;;;0.30;;
10283;SDS011;5187;52.378;9.018;2022-12-18T00:52:09;0.40;;;0.40;;
10283;SDS011;5187;52.378;9.018;2022-12-18T00:54:38;0.40;;;0.40;;
10283;SDS011;5187;52.378;9.018;2022-12-18T00:57:06;0.40;;;0.40;;
10283;SDS011;5187;52.378;9.018;2022-12-18T00:59:35;0.40;;;0.40;;
10283;SDS011;5187;52.378;9.018;2022-12-18T01:02:03;0.40;;;0.40;;
10283;SDS011;5187;52.378;9.018;2022-12-18T01:04:32;0.40;;;0.40;;
10283;SDS011;5187;52.378;9.018;2022-12-18T01:07:02;0.40;;;0.40;;
10283;SDS011;5187;52.378;9.018;2022-12-18T01:09:30;0.33;;;0.33;;
10283;SDS011;5187;52.378;9.018;2022-12-18T01:11:59;0.30;;;0.30;;
10283;SDS011;5187;52.378;9.018;2022-12-18T01:14:27;0.30;;;0.30;;
10283;SDS011;5187;52.378;9.018;2022-12-18T01:16:56;0.33;;;0.33;;
10283;SDS011;5187;52.378;9.018;2022-12-18T01:19:24;0.30;;;0.30;;
10283;SDS011;5187;52.378;9.018;2022-12-18T01:21:53;0.40;;;0.40;;
10283;SDS011;5187;52.378;9.018;2022-12-18T01:24:23;0.30;;;0.30;;
10283;SDS011;5187;52.378;9.018;2022-12-18T01:26:51;0.40;;;0.40;;
10283;SDS011;5187;52.378;9.018;2022-12-18T01:29:19;0.40;;;0.40;;
10283;SDS011;5187;52.378;9.018;2022-12-18T01:31:48;0.40;;;0.40;;
10283;SDS011;5187;52.378;9.018;2022-12-18T01:34:17;0.30;;;0.30;;
10283;SDS011;5187;52.378;9.018;2022-12-18T01:36:45;0.33;;;0.33;;
10283;SDS011;5187;52.378;9.018;2022-12-18T01:39:14;0.40;;;0.40;;
10283;SDS011;5187;52.378;9.018;2022-12-18T01:41:44;0.30;;;0.30;;
10283;SDS011;5187;52.378;9.018;2022-12-18T01:47:20;0.30;;;0.30;;
10283;SDS011;5187;52.378;9.018;2022-12-18T01:49:48;0.30;;;0.30;;
10283;SDS011;5187;52.378;9.018;2022-12-18T01:52:17;0.30;;;0.30;;
10283;SDS011;5187;52.378;9.018;2022-12-18T01:54:47;0.20;;;0.20;;
10283;SDS011;5187;52.378;9.018;2022-12-18T01:57:17;0.30;;;0.30;;
10283;SDS011;5187;52.378;9.018;2022-12-18T01:59:46;0.30;;;0.30;;
10283;SDS011;5187;52.378;9.018;2022-12-18T02:02:15;0.30;;;0.30;;
10283;SDS011;5187;52.378;9.018;2022-12-18T02:04:45;0.20;;;0.20;;
10283;SDS011;5187;52.378;9.018;2022-12-18T02:07:17;0.30;;;0.30;;
10283;SDS011;5187;52.378;9.018;2022-12-18T02:09:48;0.30;;;0.30;;
10283;SDS011;5187;52.378;9.018;2022-12-18T02:12:20;0.30;;;0.30;;
10283;SDS011;5187;52.378;9.018;2022-12-18T02:14:51;0.30;;;0.30;;
10283;SDS011;5187;52.378;9.018;2022-12-18T02:17:23;0.20;;;0.20;;
10283;SDS011;5187;52.378;9.018;2022-12-18T02:20:00;0.40;;;0.40;;
10283;SDS011;5187;52.378;9.018;2022-12-18T02:22:34;0.30;;;0.30;;
10283;SDS011;5187;52.378;9.018;2022-12-18T02:25:11;0.30;;;0.30;;
10283;SDS011;5187;52.378;9.018;2022-12-18T02:27:42;0.30;;;0.30;;
10283;SDS011;5187;52.378;9.018;2022-12-18T02:30:13;0.30;;;0.30;;
10283;SDS011;5187;52.378;9.018;2022-12-18T02:32:42;0.30;;;0.30;;
10283;SDS011;5187;52.378;9.018;2022-12-18T02:35:13;0.30;;;0.30;;
10283;SDS011;5187;52.378;9.018;2022-12-18T02:37:42;0.30;;;0.30;;
10283;SDS011;5187;52.378;9.018;2022-12-18T02:40:11;0.30;;;0.30;;
10283;SDS011;5187;52.378;9.018;2022-12-18T02:42:40;0.30;;;0.30;;
10283;SDS011;5187;52.378;9.018;2022-12-18T02:45:11;0.20;;;0.20;;
10283;SDS011;5187;52.378;9.018;2022-12-18T02:47:40;0.30;;;0.30;;
10283;SDS011;5187;52.378;9.018;2022-12-18T02:50:12;0.30;;;0.30;;
10283;SDS011;5187;52.378;9.018;2022-12-18T02:52:44;0.30;;;0.30;;
10283;SDS011;5187;52.378;9.018;2022-12-18T02:55:17;0.20;;;0.20;;
10283;SDS011;5187;52.378;9.018;2022-12-18T02:57:52;0.30;;;0.30;;
10283;SDS011;5187;52.378;9.018;2022-12-18T03:00:24;0.30;;;0.30;;
10283;SDS011;5187;52.378;9.018;2022-12-18T03:02:56;0.33;;;0.33;;
10283;SDS011;5187;52.378;9.018;2022-12-18T03:05:30;0.30;;;0.30;;
10283;SDS011;5187;52.378;9.018;2022-12-18T03:08:00;0.30;;;0.30;;
10283;SDS011;5187;52.378;9.018;2022-12-18T03:10:32;0.30;;;0.30;;
10283;SDS011;5187;52.378;9.018;2022-12-18T03:13:03;0.30;;;0.30;;
10283;SDS011;5187;52.378;9.018;2022-12-18T03:15:36;0.30;;;0.30;;
10283;SDS011;5187;52.378;9.018;2022-12-18T03:18:07;0.30;;;0.30;;
10283;SDS011;5187;52.378;9.018;2022-12-18T03:20:36;0.40;;;0.40;;
10283;SDS011;5187;52.378;9.018;2022-12-18T03:23:07;0.30;;;0.30;;
10283;SDS011;5187;52.378;9.018;2022-12-18T03:25:38;0.30;;;0.30;;
10283;SDS011;5187;52.378;9.018;2022-12-18T03:28:07;0.40;;;0.40;;
10283;SDS011;5187;52.378;9.018;2022-12-18T03:30:39;0.30;;;0.30;;
10283;SDS011;5187;52.378;9.018;2022-12-18T03:33:10;0.40;;;0.40;;
10283;SDS011;5187;52.378;9.018;2022-12-18T03:35:41;0.30;;;0.30;;
10283;SDS011;5187;52.378;9.018;2022-12-18T03:38:10;0.30;;;0.30;;
10283;SDS011;5187;52.378;9.018;2022-12-18T03:40:43;0.40;;;0.40;;
10283;SDS011;5187;52.378;9.018;2022-12-18T03:43:16;0.40;;;0.40;;
10283;SDS011;5187;52.378;9.018;2022-12-18T03:45:51;0.40;;;0.40;;
10283;SDS011;5187;52.378;9.018;2022-12-18T03:48:23;0.30;;;0.30;;
10283;SDS011;5187;52.378;9.018;2022-12-18T03:50:56;0.30;;;0.30;;
10283;SDS011;5187;52.378;9.018;2022-12-18T03:53:28;0.30;;;0.30;;
10283;SDS011;5187;52.378;9.018;2022-12-18T03:55:58;0.40;;;0.40;;
10283;SDS011;5187;52.378;9.018;2022-12-18T03:58:27;0.30;;;0.30;;
10283;SDS011;5187;52.378;9.018;2022-12-18T04:00:59;0.30;;;0.30;;
10283;SDS011;5187;52.378;9.018;2022-12-18T04:03:28;0.30;;;0.30;;
10283;SDS011;5187;52.378;9.018;2022-12-18T04:05:58;0.30;;;0.30;;
10283;SDS011;5187;52.378;9.018;2022-12-18T04:08:28;0.30;;;0.30;;
10283;SDS011;5187;52.378;9.018;2022-12-18T04:10:57;0.30;;;0.30;;
10283;SDS011;5187;52.378;9.018;2022-12-18T04:13:27;0.30;;;0.30;;
10283;SDS011;5187;52.378;9.018;2022-12-18T04:15:57;0.30;;;0.30;;
10283;SDS011;5187;52.378;9.018;2022-12-18T04:18:26;0.30;;;0.30;;
10283;SDS011;5187;52.378;9.018;2022-12-18T04:20:55;0.40;;;0.40;;
10283;SDS011;5187;52.378;9.018;2022-12-18T04:23:23;0.40;;;0.40;;
10283;SDS011;5187;52.378;9.018;2022-12-18T04:25:51;0.40;;;0.40;;
10283;SDS011;5187;52.378;9.018;2022-12-18T04:28:20;0.40;;;0.40;;
10283;SDS011;5187;52.378;9.018;2022-12-18T04:30:49;0.40;;;0.40;;
10283;SDS011;5187;52.378;9.018;2022-12-18T04:33:19;0.40;;;0.40;;
10283;SDS011;5187;52.378;9.018;2022-12-18T04:35:47;0.30;;;0.30;;
10283;SDS011;5187;52.378;9.018;2022-12-18T04:38:15;0.33;;;0.33;;
10283;SDS011;5187;52.378;9.018;2022-12-18T04:40:44;0.40;;;0.40;;
10283;SDS011;5187;52.378;9.018;2022-12-18T04:43:12;0.40;;;0.40;;
10283;SDS011;5187;52.378;9.018;2022-12-18T04:45:41;0.40;;;0.40;;
10283;SDS011;5187;52.378;9.018;2022-12-18T04:48:09;0.40;;;0.40;;
10283;SDS011;5187;52.378;9.018;2022-12-18T04:50:39;0.40;;;0.40;;
10283;SDS011;5187;52.378;9.018;2022-12-18T04:53:08;0.40;;;0.40;;
10283;SDS011;5187;52.378;9.018;2022-12-18T04:55:36;0.40;;;0.40;;
10283;SDS011;5187;52.378;9.018;2022-12-18T04:58:05;0.40;;;0.40;;
10283;SDS011;5187;52.378;9.018;2022-12-18T05:00:34;0.40;;;0.40;;
10283;SDS011;5187;52.378;9.018;2022-12-18T05:03:03;0.40;;;0.40;;
10283;SDS011;5187;52.378;9.018;2022-12-18T05:05:31;0.40;;;0.40;;
10283;SDS011;5187;52.378;9.018;2022-12-18T05:08:03;0.30;;;0.30;;
10283;SDS011;5187;52.378;9.018;2022-12-18T05:10:32;0.33;;;0.33;;
10283;SDS011;5187;52.378;9.018;2022-12-18T05:13:03;0.40;;;0.40;;
10283;SDS011;5187;52.378;9.018;2022-12-18T05:15:32;0.40;;;0.40;;
10283;SDS011;5187;52.378;9.018;2022-12-18T05:18:01;0.40;;;0.40;;
10283;SDS011;5187;52.378;9.018;2022-12-18T05:20:30;0.40;;;0.40;;
10283;SDS011;5187;52.378;9.018;2022-12-18T05:22:58;0.40;;;0.40;;
10283;SDS011;5187;52.378;9.018;2022-12-18T05:25:28;0.40;;;0.40;;
10283;SDS011;5187;52.378;9.018;2022-12-18T05:27:57;0.40;;;0.40;;
10283;SDS011;5187;52.378;9.018;2022-12-18T05:30:25;0.40;;;0.40;;
10283;SDS011;5187;52.378;9.018;2022-12-18T05:32:54;0.30;;;0.30;;
10283;SDS011;5187;52.378;9.018;2022-12-18T05:35:23;0.40;;;0.40;;
10283;SDS011;5187;52.378;9.018;2022-12-18T05:37:51;0.40;;;0.40;;
10283;SDS011;5187;52.378;9.018;2022-12-18T05:40:20;0.40;;;0.40;;
10283;SDS011;5187;52.378;9.018;2022-12-18T05:42:50;0.30;;;0.30;;
10283;SDS011;5187;52.378;9.018;2022-12-18T05:45:18;0.40;;;0.40;;
10283;SDS011;5187;52.378;9.018;2022-12-18T05:47:47;0.40;;;0.40;;
10283;SDS011;5187;52.378;9.018;2022-12-18T05:50:15;0.40;;;0.40;;
10283;SDS011;5187;52.378;9.018;2022-12-18T05:52:44;0.40;;;0.40;;
10283;SDS011;5187;52.378;9.018;2022-12-18T05:55:12;0.40;;;0.40;;
10283;SDS011;5187;52.378;9.018;2022-12-18T05:57:41;0.30;;;0.30;;
10283;SDS011;5187;52.378;9.018;2022-12-18T06:00:12;0.40;;;0.40;;
10283;SDS011;5187;52.378;9.018;2022-12-18T06:02:40;0.40;;;0.40;;
10283;SDS011;5187;52.378;9.018;2022-12-18T06:05:09;0.30;;;0.30;;
10283;SDS011;5187;52.378;9.018;2022-12-18T06:07:37;0.30;;;0.30;;
10283;SDS011;5187;52.378;9.018;2022-12-18T06:10:06;0.40;;;0.40;;
10283;SDS011;5187;52.378;9.018;2022-12-18T06:12:35;0.40;;;0.40;;
10283;SDS011;5187;52.378;9.018;2022-12-18T06:15:04;0.33;;;0.33;;
10283;SDS011;5187;52.378;9.018;2022-12-18T06:17:34;0.30;;;0.30;;
10283;SDS011;5187;52.378;9.018;2022-12-18T06:20:03;0.40;;;0.40;;
10283;SDS011;5187;52.378;9.018;2022-12-18T06:22:33;0.40;;;0.40;;
10283;SDS011;5187;52.378;9.018;2022-12-18T06:25:02;0.30;;;0.30;;
10283;SDS011;5187;52.378;9.018;2022-12-18T06:27:33;0.40;;;0.40;;
10283;SDS011;5187;52.378;9.018;2022-12-18T06:30:01;0.40;;;0.40;;
10283;SDS011;5187;52.378;9.018;2022-12-18T06:32:30;0.40;;;0.40;;
10283;SDS011;5187;52.378;9.018;2022-12-18T06:35:00;0.40;;;0.40;;
10283;SDS011;5187;52.378;9.018;2022-12-18T06:37:28;0.40;;;0.40;;
10283;SDS011;5187;52.378;9.018;2022-12-18T06:39:58;0.30;;;0.30;;
10283;SDS011;5187;52.378;9.018;2022-12-18T06:42:28;0.40;;;0.40;;
10283;SDS011;5187;52.378;9.018;2022-12-18T06:44:56;0.30;;;0.30;;
10283;SDS011;5187;52.378;9.018;2022-12-18T06:47:25;0.40;;;0.40;;
10283;SDS011;5187;52.378;9.018;2022-12-18T06:49:53;0.40;;;0.40;;
10283;SDS011;5187;52.378;9.018;2022-12-18T06:52:23;0.30;;;0.30;;
10283;SDS011;5187;52.378;9.018;2022-12-18T06:54:51;0.40;;;0.40;;
10283;SDS011;5187;52.378;9.018;2022-12-18T06:57:20;0.40;;;0.40;;
10283;SDS011;5187;52.378;9.018;2022-12-18T06:59:48;0.40;;;0.40;;
10283;SDS011;5187;52.378;9.018;2022-12-18T07:02:17;0.40;;;0.40;;
10283;SDS011;5187;52.378;9.018;2022-12-18T07:04:46;0.40;;;0.40;;
10283;SDS011;5187;52.378;9.018;2022-12-18T07:07:14;0.30;;;0.30;;
10283;SDS011;5187;52.378;9.018;2022-12-18T07:09:44;0.30;;;0.30;;
10283;SDS011;5187;52.378;9.018;2022-12-18T07:12:13;0.30;;;0.30;;
10283;SDS011;5187;52.378;9.018;2022-12-18T07:14:41;0.40;;;0.40;;
10283;SDS011;5187;52.378;9.018;2022-12-18T07:17:10;0.37;;;0.37;;
10283;SDS011;5187;52.378;9.018;2022-12-18T07:19:38;0.30;;;0.30;;
10283;SDS011;5187;52.378;9.018;2022-12-18T07:22:07;0.40;;;0.40;;
10283;SDS011;5187;52.378;9.018;2022-12-18T07:24:35;0.40;;;0.40;;
10283;SDS011;5187;52.378;9.018;2022-12-18T07:27:05;0.40;;;0.40;;
10283;SDS011;5187;52.378;9.018;2022-12-18T07:29:35;0.37;;;0.37;;
10283;SDS011;5187;52.378;9.018;2022-12-18T07:32:04;0.40;;;0.40;;
10283;SDS011;5187;52.378;9.018;2022-12-18T07:34:34;0.40;;;0.40;;
10283;SDS011;5187;52.378;9.018;2022-12-18T07:37:02;0.40;;;0.40;;
10283;SDS011;5187;52.378;9.018;2022-12-18T07:39:31;0.40;;;0.40;;
10283;SDS011;5187;52.378;9.018;2022-12-18T07:41:59;0.30;;;0.30;;
10283;SDS011;5187;52.378;9.018;2022-12-18T07:44:48;0.30;;;0.30;;
10283;SDS011;5187;52.378;9.018;2022-12-18T07:47:16;0.40;;;0.40;;
10283;SDS011;5187;52.378;9.018;2022-12-18T07:49:45;0.40;;;0.40;;
10283;SDS011;5187;52.378;9.018;2022-12-18T07:52:13;0.40;;;0.40;;
10283;SDS011;5187;52.378;9.018;2022-12-18T07:54:48;0.30;;;0.30;;
10283;SDS011;5187;52.378;9.018;2022-12-18T07:57:16;0.30;;;0.30;;
10283;SDS011;5187;52.378;9.018;2022-12-18T08:00:07;0.30;;;0.30;;
10283;SDS011;5187;52.378;9.018;2022-12-18T08:02:36;0.30;;;0.30;;
10283;SDS011;5187;52.378;9.018;2022-12-18T08:05:04;0.40;;;0.40;;
10283;SDS011;5187;52.378;9.018;2022-12-18T08:07:33;0.30;;;0.30;;
10283;SDS011;5187;52.378;9.018;2022-12-18T08:10:02;0.30;;;0.30;;
10283;SDS011;5187;52.378;9.018;2022-12-18T08:12:31;0.30;;;0.30;;
10283;SDS011;5187;52.378;9.018;2022-12-18T08:15:00;0.30;;;0.30;;
10283;SDS011;5187;52.378;9.018;2022-12-18T08:17:31;0.20;;;0.20;;
10283;SDS011;5187;52.378;9.018;2022-12-18T08:20:00;0.30;;;0.30;;
10283;SDS011;5187;52.378;9.018;2022-12-18T08:22:29;0.30;;;0.30;;
10283;SDS011;5187;52.378;9.018;2022-12-18T08:24:57;0.30;;;0.30;;
10283;SDS011;5187;52.378;9.018;2022-12-18T08:27:26;0.30;;;0.30;;
10283;SDS011;5187;52.378;9.018;2022-12-18T08:29:55;0.30;;;0.30;;
10283;SDS011;5187;52.378;9.018;2022-12-18T08:32:24;0.30;;;0.30;;
10283;SDS011;5187;52.378;9.018;2022-12-18T08:34:55;0.30;;;0.30;;
10283;SDS011;5187;52.378;9.018;2022-12-18T08:37:24;0.20;;;0.20;;
10283;SDS011;5187;52.378;9.018;2022-12-18T08:39:52;0.20;;;0.20;;
10283;SDS011;5187;52.378;9.018;2022-12-18T08:42:21;0.20;;;0.20;;
10283;SDS011;5187;52.378;9.018;2022-12-18T08:45:07;0.20;;;0.20;;
10283;SDS011;5187;52.378;9.018;2022-12-18T08:47:36;0.20;;;0.20;;
10283;SDS011;5187;52.378;9.018;2022-12-18T08:50:06;0.20;;;0.20;;
10283;SDS011;5187;52.378;9.018;2022-12-18T08:52:35;0.10;;;0.10;;
10283;SDS011;5187;52.378;9.018;2022-12-18T08:55:04;0.10;;;0.10;;
10283;SDS011;5187;52.378;9.018;2022-12-18T08:57:33;0.20;;;0.20;;
10283;SDS011;5187;52.378;9.018;2022-12-18T09:00:01;0.17;;;0.17;;
10283;SDS011;5187;52.378;9.018;2022-12-18T09:02:30;0.10;;;0.10;;
10283;SDS011;5187;52.378;9.018;2022-12-18T09:04:59;0.10;;;0.10;;
10283;SDS011;5187;52.378;9.018;2022-12-18T09:07:32;0.10;;;0.10;;
10283;SDS011;5187;52.378;9.018;2022-12-18T09:10:00;0.10;;;0.10;;
10283;SDS011;5187;52.378;9.018;2022-12-18T09:12:29;0.10;;;0.10;;
10283;SDS011;5187;52.378;9.018;2022-12-18T09:14:57;0.10;;;0.10;;
10283;SDS011;5187;52.378;9.018;2022-12-18T09:17:26;0.10;;;0.10;;
10283;SDS011;5187;52.378;9.018;2022-12-18T09:19:54;0.00;;;0.00;;
10283;SDS011;5187;52.378;9.018;2022-12-18T09:22:23;0.10;;;0.10;;
10283;SDS011;5187;52.378;9.018;2022-12-18T09:24:53;0.00;;;0.00;;
10283;SDS011;5187;52.378;9.018;2022-12-18T09:27:21;0.10;;;0.10;;
10283;SDS011;5187;52.378;9.018;2022-12-18T09:29:50;0.00;;;0.00;;
10283;SDS011;5187;52.378;9.018;2022-12-18T09:32:19;0.10;;;0.10;;
10283;SDS011;5187;52.378;9.018;2022-12-18T09:34:47;0.10;;;0.10;;
10283;SDS011;5187;52.378;9.018;2022-12-18T09:37:16;0.10;;;0.10;;
10283;SDS011;5187;52.378;9.018;2022-12-18T09:39:45;0.10;;;0.10;;
10283;SDS011;5187;52.378;9.018;2022-12-18T09:42:17;0.10;;;0.10;;
10283;SDS011;5187;52.378;9.018;2022-12-18T09:44:49;0.10;;;0.10;;
10283;SDS011;5187;52.378;9.018;2022-12-18T09:47:18;0.10;;;0.10;;
10283;SDS011;5187;52.378;9.018;2022-12-18T09:49:50;0.10;;;0.10;;
10283;SDS011;5187;52.378;9.018;2022-12-18T09:52:20;0.10;;;0.10;;
10283;SDS011;5187;52.378;9.018;2022-12-18T09:54:50;0.10;;;0.10;;
10283;SDS011;5187;52.378;9.018;2022-12-18T09:57:22;0.20;;;0.20;;
10283;SDS011;5187;52.378;9.018;2022-12-18T09:59:53;0.10;;;0.10;;
10283;SDS011;5187;52.378;9.018;2022-12-18T10:02:23;0.10;;;0.10;;
10283;SDS011;5187;52.378;9.018;2022-12-18T10:04:59;0.10;;;0.10;;
10283;SDS011;5187;52.378;9.018;2022-12-18T10:07:32;0.10;;;0.10;;
10283;SDS011;5187;52.378;9.018;2022-12-18T10:10:04;0.10;;;0.10;;
10283;SDS011;5187;52.378;9.018;2022-12-18T10:12:37;0.10;;;0.10;;
10283;SDS011;5187;52.378;9.018;2022-12-18T10:15:10;0.10;;;0.10;;
10283;SDS011;5187;52.378;9.018;2022-12-18T10:17:41;0.10;;;0.10;;
10283;SDS011;5187;52.378;9.018;2022-12-18T10:20:13;0.00;;;0.00;;
10283;SDS011;5187;52.378;9.018;2022-12-18T10:22:46;0.10;;;0.10;;
10283;SDS011;5187;52.378;9.018;2022-12-18T10:25:18;0.10;;;0.10;;
10283;SDS011;5187;52.378;9.018;2022-12-18T10:27:49;0.00;;;0.00;;
10283;SDS011;5187;52.378;9.018;2022-12-18T10:30:21;0.10;;;0.10;;
10283;SDS011;5187;52.378;9.018;2022-12-18T10:32:49;0.10;;;0.10;;
10283;SDS011;5187;52.378;9.018;2022-12-18T10:35:20;0.00;;;0.00;;
10283;SDS011;5187;52.378;9.018;2022-12-18T10:38:07;0.10;;;0.10;;
10283;SDS011;5187;52.378;9.018;2022-12-18T10:40:49;0.00;;;0.00;;
10283;SDS011;5187;52.378;9.018;2022-12-18T10:43:21;0.10;;;0.10;;
10283;SDS011;5187;52.378;9.018;2022-12-18T10:46:04;0.10;;;0.10;;
10283;SDS011;5187;52.378;9.018;2022-12-18T10:48:34;0.00;;;0.00;;
10283;SDS011;5187;52.378;9.018;2022-12-18T10:51:04;0.00;;;0.00;;
10283;SDS011;5187;52.378;9.018;2022-12-18T10:53:39;0.10;;;0.10;;
10283;SDS011;5187;52.378;9.018;2022-12-18T10:56:09;0.10;;;0.10;;
10283;SDS011;5187;52.378;9.018;2022-12-18T10:58:39;0.10;;;0.10;;
10283;SDS011;5187;52.378;9.018;2022-12-18T11:01:09;0.00;;;0.00;;
10283;SDS011;5187;52.378;9.018;2022-12-18T11:03:38;0.10;;;0.10;;
10283;SDS011;5187;52.378;9.018;2022-12-18T11:06:08;0.00;;;0.00;;
10283;SDS011;5187;52.378;9.018;2022-12-18T11:08:37;0.00;;;0.00;;
10283;SDS011;5187;52.378;9.018;2022-12-18T11:11:07;0.10;;;0.10;;
10283;SDS011;5187;52.378;9.018;2022-12-18T11:13:49;0.00;;;0.00;;
10283;SDS011;5187;52.378;9.018;2022-12-18T11:16:20;0.00;;;0.00;;
10283;SDS011;5187;52.378;9.018;2022-12-18T11:18:50;0.10;;;0.10;;
10283;SDS011;5187;52.378;9.018;2022-12-18T11:21:18;0.10;;;0.10;;
10283;SDS011;5187;52.378;9.018;2022-12-18T11:23:48;0.10;;;0.10;;
10283;SDS011;5187;52.378;9.018;2022-12-18T11:26:17;0.10;;;0.10;;
10283;SDS011;5187;52.378;9.018;2022-12-18T11:28:46;0.10;;;0.10;;
10283;SDS011;5187;52.378;9.018;2022-12-18T11:31:20;0.10;;;0.10;;
10283;SDS011;5187;52.378;9.018;2022-12-18T11:33:54;0.10;;;0.10;;
10283;SDS011;5187;52.378;9.018;2022-12-18T11:36:45;0.10;;;0.10;;
10283;SDS011;5187;52.378;9.018;2022-12-18T11:39:15;0.10;;;0.10;;
10283;SDS011;5187;52.378;9.018;2022-12-18T11:41:49;0.10;;;0.10;;
10283;SDS011;5187;52.378;9.018;2022-12-18T11:44:44;0.10;;;0.10;;
10283;SDS011;5187;52.378;9.018;2022-12-18T11:47:24;0.10;;;0.10;;
10283;SDS011;5187;52.378;9.018;2022-12-18T11:49:55;0.10;;;0.10;;
10283;SDS011;5187;52.378;9.018;2022-12-18T11:52:28;0.10;;;0.10;;
10283;SDS011;5187;52.378;9.018;2022-12-18T11:55:04;0.10;;;0.10;;
10283;SDS011;5187;52.378;9.018;2022-12-18T11:57:37;0.10;;;0.10;;
10283;SDS011;5187;52.378;9.018;2022-12-18T12:00:11;0.10;;;0.10;;
10283;SDS011;5187;52.378;9.018;2022-12-18T12:02:46;0.10;;;0.10;;
10283;SDS011;5187;52.378;9.018;2022-12-18T12:05:24;0.10;;;0.10;;
10283;SDS011;5187;52.378;9.018;2022-12-18T12:07:56;0.10;;;0.10;;
10283;SDS011;5187;52.378;9.018;2022-12-18T12:10:32;0.10;;;0.10;;
10283;SDS011;5187;52.378;9.018;2022-12-18T12:13:10;0.10;;;0.10;;
10283;SDS011;5187;52.378;9.018;2022-12-18T12:15:45;0.10;;;0.10;;
10283;SDS011;5187;52.378;9.018;2022-12-18T12:18:23;0.10;;;0.10;;
10283;SDS011;5187;52.378;9.018;2022-12-18T12:20:58;0.10;;;0.10;;
10283;SDS011;5187;52.378;9.018;2022-12-18T12:23:31;0.10;;;0.10;;
10283;SDS011;5187;52.378;9.018;2022-12-18T12:26:03;0.10;;;0.10;;
10283;SDS011;5187;52.378;9.018;2022-12-18T12:28:41;0.10;;;0.10;;
10283;SDS011;5187;52.378;9.018;2022-12-18T12:31:13;0.10;;;0.10;;
10283;SDS011;5187;52.378;9.018;2022-12-18T12:33:49;0.10;;;0.10;;
10283;SDS011;5187;52.378;9.018;2022-12-18T12:36:21;0.10;;;0.10;;
10283;SDS011;5187;52.378;9.018;2022-12-18T12:38:53;0.10;;;0.10;;
10283;SDS011;5187;52.378;9.018;2022-12-18T12:41:23;0.10;;;0.10;;
10283;SDS011;5187;52.378;9.018;2022-12-18T12:44:13;0.10;;;0.10;;
10283;SDS011;5187;52.378;9.018;2022-12-18T12:46:43;0.10;;;0.10;;
10283;SDS011;5187;52.378;9.018;2022-12-18T12:49:15;0.10;;;0.10;;
10283;SDS011;5187;52.378;9.018;2022-12-18T12:51:44;0.10;;;0.10;;
10283;SDS011;5187;52.378;9.018;2022-12-18T12:54:15;0.10;;;0.10;;
10283;SDS011;5187;52.378;9.018;2022-12-18T12:56:46;0.10;;;0.10;;
10283;SDS011;5187;52.378;9.018;2022-12-18T12:59:19;0.10;;;0.10;;
10283;SDS011;5187;52.378;9.018;2022-12-18T13:01:52;0.20;;;0.20;;
10283;SDS011;5187;52.378;9.018;2022-12-18T13:04:26;0.10;;;0.10;;
10283;SDS011;5187;52.378;9.018;2022-12-18T13:06:57;0.10;;;0.10;;
10283;SDS011;5187;52.378;9.018;2022-12-18T13:09:29;0.10;;;0.10;;
10283;SDS011;5187;52.378;9.018;2022-12-18T13:12:01;0.20;;;0.20;;
10283;SDS011;5187;52.378;9.018;2022-12-18T13:14:48;0.10;;;0.10;;
10283;SDS011;5187;52.378;9.018;2022-12-18T13:17:26;0.10;;;0.10;;
10283;SDS011;5187;52.378;9.018;2022-12-18T13:20:05;0.10;;;0.10;;
10283;SDS011;5187;52.378;9.018;2022-12-18T13:22:35;0.10;;;0.10;;
10283;SDS011;5187;52.378;9.018;2022-12-18T13:27:55;0.10;;;0.10;;
10283;SDS011;5187;52.378;9.018;2022-12-18T13:33:34;0.13;;;0.13;;
10283;SDS011;5187;52.378;9.018;2022-12-18T13:36:31;0.10;;;0.10;;
10283;SDS011;5187;52.378;9.018;2022-12-18T13:47:50;0.10;;;0.10;;
10283;SDS011;5187;52.378;9.018;2022-12-18T13:50:20;0.10;;;0.10;;
10283;SDS011;5187;52.378;9.018;2022-12-18T13:53:13;0.10;;;0.10;;
10283;SDS011;5187;52.378;9.018;2022-12-18T13:55:48;0.10;;;0.10;;
10283;SDS011;5187;52.378;9.018;2022-12-18T13:58:18;0.10;;;0.10;;
10283;SDS011;5187;52.378;9.018;2022-12-18T14:00:46;0.10;;;0.10;;
10283;SDS011;5187;52.378;9.018;2022-12-18T14:03:19;0.10;;;0.10;;
10283;SDS011;5187;52.378;9.018;2022-12-18T14:05:52;0.20;;;0.20;;
10283;SDS011;5187;52.378;9.018;2022-12-18T14:08:23;0.10;;;0.10;;
10283;SDS011;5187;52.378;9.018;2022-12-18T14:10:53;0.10;;;0.10;;
10283;SDS011;5187;52.378;9.018;2022-12-18T14:13:24;0.10;;;0.10;;
10283;SDS011;5187;52.378;9.018;2022-12-18T14:15:53;0.10;;;0.10;;
10283;SDS011;5187;52.378;9.018;2022-12-18T14:18:23;0.13;;;0.13;;
10283;SDS011;5187;52.378;9.018;2022-12-18T14:20:54;0.10;;;0.10;;
10283;SDS011;5187;52.378;9.018;2022-12-18T14:23:28;0.10;;;0.10;;
10283;SDS011;5187;52.378;9.018;2022-12-18T14:25:57;0.10;;;0.10;;
10283;SDS011;5187;52.378;9.018;2022-12-18T14:28:30;0.10;;;0.10;;
10283;SDS011;5187;52.378;9.018;2022-12-18T14:30:59;0.10;;;0.10;;
10283;SDS011;5187;52.378;9.018;2022-12-18T14:33:28;0.10;;;0.10;;
10283;SDS011;5187;52.378;9.018;2022-12-18T14:35:57;0.10;;;0.10;;
10283;SDS011;5187;52.378;9.018;2022-12-18T14:38:29;0.10;;;0.10;;
10283;SDS011;5187;52.378;9.018;2022-12-18T14:40:58;0.10;;;0.10;;
10283;SDS011;5187;52.378;9.018;2022-12-18T14:43:28;0.10;;;0.10;;
10283;SDS011;5187;52.378;9.018;2022-12-18T14:45:56;0.10;;;0.10;;
10283;SDS011;5187;52.378;9.018;2022-12-18T14:48:32;0.10;;;0.10;;
10283;SDS011;5187;52.378;9.018;2022-12-18T14:51:02;0.10;;;0.10;;
10283;SDS011;5187;52.378;9.018;2022-12-18T14:53:34;0.20;;;0.20;;
10283;SDS011;5187;52.378;9.018;2022-12-18T14:56:10;0.10;;;0.10;;
10283;SDS011;5187;52.378;9.018;2022-12-18T14:58:44;0.10;;;0.10;;
10283;SDS011;5187;52.378;9.018;2022-12-18T15:01:17;0.10;;;0.10;;
10283;SDS011;5187;52.378;9.018;2022-12-18T15:03:46;0.10;;;0.10;;
10283;SDS011;5187;52.378;9.018;2022-12-18T15:06:16;0.10;;;0.10;;
10283;SDS011;5187;52.378;9.018;2022-12-18T15:08:46;0.10;;;0.10;;
10283;SDS011;5187;52.378;9.018;2022-12-18T15:11:28;0.10;;;0.10;;
10283;SDS011;5187;52.378;9.018;2022-12-18T15:13:57;0.10;;;0.10;;
10283;SDS011;5187;52.378;9.018;2022-12-18T15:16:27;0.10;;;0.10;;
10283;SDS011;5187;52.378;9.018;2022-12-18T15:18:55;0.10;;;0.10;;
10283;SDS011;5187;52.378;9.018;2022-12-18T15:21:24;0.10;;;0.10;;
10283;SDS011;5187;52.378;9.018;2022-12-18T15:23:58;0.10;;;0.10;;
10283;SDS011;5187;52.378;9.018;2022-12-18T15:26:26;0.10;;;0.10;;
10283;SDS011;5187;52.378;9.018;2022-12-18T15:29:04;0.10;;;0.10;;
10283;SDS011;5187;52.378;9.018;2022-12-18T15:31:40;0.10;;;0.10;;
10283;SDS011;5187;52.378;9.018;2022-12-18T15:34:10;0.10;;;0.10;;
10283;SDS011;5187;52.378;9.018;2022-12-18T15:36:40;0.10;;;0.10;;
10283;SDS011;5187;52.378;9.018;2022-12-18T15:39:12;0.10;;;0.10;;
10283;SDS011;5187;52.378;9.018;2022-12-18T15:41:43;0.10;;;0.10;;